sensor_id;sensor_type;location;lat;lon;timestamp;P1;durP1;ratioP1;P2;durP2;ratioP2
20000;SDS011;10161;41.188;-8.642;2022-12-16T00:02:22;8.10;;;3.00;;
20000;SDS011;10161;41.188;-8.642;2022-12-16T00:04:51;6.20;;;2.90;;
20000;SDS011;10161;41.188;-8.642;2022-12-16T00:07:18;7.20;;;3.23;;
20000;SDS011;10161;41.188;-8.642;2022-12-16T00:09:44;10.17;;;3.50;;
20000;SDS011;10161;41.188;-8.642;2022-12-16T00:12:11;4.30;;;2.63;;
20000;SDS011;10161;41.188;-8.642;2022-12-16T00:14:38;7.63;;;2.97;;
20000;SDS011;10161;41.188;-8.642;2022-12-16T00:17:05;4.47;;;2.27;;
20000;SDS011;10161;41.188;-8.642;2022-12-16T00:19:32;9.30;;;2.87;;
20000;SDS011;10161;41.188;-8.642;2022-12-16T00:22:00;8.17;;;2.93;;
20000;SDS011;10161;41.188;-8.642;2022-12-16T00:24:27;3.50;;;2.10;;
20000;SDS011;10161;41.188;-8.642;2022-12-16T00:26:55;8.57;;;3.07;;
20000;SDS011;10161;41.188;-8.642;2022-12-16T00:29:22;6.20;;;3.43;;
20000;SDS011;10161;41.188;-8.642;2022-12-16T00:31:49;6.63;;;3.47;;
20000;SDS011;10161;41.188;-8.642;2022-12-16T00:34:16;8.97;;;2.77;;
20000;SDS011;10161;41.188;-8.642;2022-12-16T00:36:44;6.70;;;3.43;;
20000;SDS011;10161;41.188;-8.642;2022-12-16T00:39:13;6.37;;;2.53;;
20000;SDS011;10161;41.188;-8.642;2022-12-16T00:41:39;8.50;;;3.23;;
20000;SDS011;10161;41.188;-8.642;2022-12-16T00:44:06;7.17;;;3.57;;
20000;SDS011;10161;41.188;-8.642;2022-12-16T00:46:33;4.83;;;3.00;;
20000;SDS011;10161;41.188;-8.642;2022-12-16T00:49:00;7.40;;;3.77;;
20000;SDS011;10161;41.188;-8.642;2022-12-16T00:51:27;6.07;;;2.97;;
20000;SDS011;10161;41.188;-8.642;2022-12-16T00:53:54;4.97;;;2.70;;
20000;SDS011;10161;41.188;-8.642;2022-12-16T00:56:23;4.10;;;2.60;;
20000;SDS011;10161;41.188;-8.642;2022-12-16T00:58:50;7.93;;;3.23;;
20000;SDS011;10161;41.188;-8.642;2022-12-16T01:01:17;6.10;;;3.03;;
20000;SDS011;10161;41.188;-8.642;2022-12-16T01:03:44;7.43;;;2.97;;
20000;SDS011;10161;41.188;-8.642;2022-12-16T01:06:12;9.30;;;3.50;;
20000;SDS011;10161;41.188;-8.642;2022-12-16T01:08:40;4.97;;;2.90;;
20000;SDS011;10161;41.188;-8.642;2022-12-16T01:11:12;5.37;;;3.07;;
20000;SDS011;10161;41.188;-8.642;2022-12-16T01:13:41;7.23;;;3.10;;
20000;SDS011;10161;41.188;-8.642;2022-12-16T01:16:08;6.53;;;3.50;;
20000;SDS011;10161;41.188;-8.642;2022-12-16T01:18:35;5.10;;;2.83;;
20000;SDS011;10161;41.188;-8.642;2022-12-16T01:21:02;7.20;;;3.00;;
20000;SDS011;10161;41.188;-8.642;2022-12-16T01:23:29;8.20;;;3.83;;
20000;SDS011;10161;41.188;-8.642;2022-12-16T01:25:58;8.60;;;3.50;;
20000;SDS011;10161;41.188;-8.642;2022-12-16T01:28:25;7.83;;;2.70;;
20000;SDS011;10161;41.188;-8.642;2022-12-16T01:30:55;5.60;;;2.70;;
20000;SDS011;10161;41.188;-8.642;2022-12-16T01:33:26;3.97;;;2.90;;
20000;SDS011;10161;41.188;-8.642;2022-12-16T01:36:00;8.50;;;3.80;;
20000;SDS011;10161;41.188;-8.642;2022-12-16T01:38:27;4.23;;;2.60;;
20000;SDS011;10161;41.188;-8.642;2022-12-16T01:40:54;4.93;;;2.60;;
20000;SDS011;10161;41.188;-8.642;2022-12-16T01:43:22;3.87;;;2.90;;
20000;SDS011;10161;41.188;-8.642;2022-12-16T01:45:51;4.97;;;2.23;;
20000;SDS011;10161;41.188;-8.642;2022-12-16T01:48:21;5.80;;;2.47;;
20000;SDS011;10161;41.188;-8.642;2022-12-16T01:51:00;4.90;;;2.93;;
20000;SDS011;10161;41.188;-8.642;2022-12-16T01:53:28;3.50;;;2.47;;
20000;SDS011;10161;41.188;-8.642;2022-12-16T01:55:56;4.53;;;2.20;;
20000;SDS011;10161;41.188;-8.642;2022-12-16T01:58:25;4.50;;;2.60;;
20000;SDS011;10161;41.188;-8.642;2022-12-16T02:00:55;5.03;;;2.37;;
20000;SDS011;10161;41.188;-8.642;2022-12-16T02:03:24;4.60;;;2.50;;
20000;SDS011;10161;41.188;-8.642;2022-12-16T02:05:51;4.53;;;2.60;;
20000;SDS011;10161;41.188;-8.642;2022-12-16T02:08:19;4.53;;;2.60;;
20000;SDS011;10161;41.188;-8.642;2022-12-16T02:10:51;7.60;;;3.03;;
20000;SDS011;10161;41.188;-8.642;2022-12-16T02:13:39;3.20;;;2.10;;
20000;SDS011;10161;41.188;-8.642;2022-12-16T02:16:17;3.13;;;2.13;;
20000;SDS011;10161;41.188;-8.642;2022-12-16T02:18:49;3.70;;;2.43;;
20000;SDS011;10161;41.188;-8.642;2022-12-16T02:36:21;7.83;;;2.80;;
20000;SDS011;10161;41.188;-8.642;2022-12-16T02:38:54;4.50;;;2.67;;
20000;SDS011;10161;41.188;-8.642;2022-12-16T02:41:24;4.43;;;2.63;;
20000;SDS011;10161;41.188;-8.642;2022-12-16T02:43:56;4.50;;;2.47;;
20000;SDS011;10161;41.188;-8.642;2022-12-16T02:46:28;4.87;;;2.93;;
20000;SDS011;10161;41.188;-8.642;2022-12-16T02:49:03;3.67;;;2.60;;
20000;SDS011;10161;41.188;-8.642;2022-12-16T02:51:31;4.93;;;2.27;;
20000;SDS011;10161;41.188;-8.642;2022-12-16T02:54:00;3.40;;;2.37;;
20000;SDS011;10161;41.188;-8.642;2022-12-16T02:56:30;5.30;;;2.90;;
20000;SDS011;10161;41.188;-8.642;2022-12-16T02:59:08;3.90;;;2.43;;
20000;SDS011;10161;41.188;-8.642;2022-12-16T03:01:45;4.27;;;2.63;;
20000;SDS011;10161;41.188;-8.642;2022-12-16T03:04:17;6.20;;;2.90;;
20000;SDS011;10161;41.188;-8.642;2022-12-16T03:06:47;2.80;;;2.00;;
20000;SDS011;10161;41.188;-8.642;2022-12-16T03:09:16;8.30;;;2.67;;
20000;SDS011;10161;41.188;-8.642;2022-12-16T03:11:46;4.37;;;2.47;;
20000;SDS011;10161;41.188;-8.642;2022-12-16T03:14:15;5.67;;;2.10;;
20000;SDS011;10161;41.188;-8.642;2022-12-16T03:16:45;5.70;;;2.37;;
20000;SDS011;10161;41.188;-8.642;2022-12-16T03:19:12;4.63;;;2.33;;
20000;SDS011;10161;41.188;-8.642;2022-12-16T03:21:42;3.40;;;2.20;;
20000;SDS011;10161;41.188;-8.642;2022-12-16T03:24:11;3.00;;;2.10;;
20000;SDS011;10161;41.188;-8.642;2022-12-16T03:26:40;3.00;;;2.13;;
20000;SDS011;10161;41.188;-8.642;2022-12-16T03:29:10;5.17;;;2.30;;
20000;SDS011;10161;41.188;-8.642;2022-12-16T03:31:40;3.90;;;2.20;;
20000;SDS011;10161;41.188;-8.642;2022-12-16T03:34:11;5.13;;;2.57;;
20000;SDS011;10161;41.188;-8.642;2022-12-16T03:36:42;2.73;;;2.30;;
20000;SDS011;10161;41.188;-8.642;2022-12-16T03:39:11;3.83;;;2.00;;
20000;SDS011;10161;41.188;-8.642;2022-12-16T03:41:38;3.07;;;1.87;;
20000;SDS011;10161;41.188;-8.642;2022-12-16T03:44:06;2.73;;;1.87;;
20000;SDS011;10161;41.188;-8.642;2022-12-16T03:46:33;6.47;;;2.20;;
20000;SDS011;10161;41.188;-8.642;2022-12-16T03:49:00;3.83;;;2.23;;
20000;SDS011;10161;41.188;-8.642;2022-12-16T03:51:29;4.40;;;2.40;;
20000;SDS011;10161;41.188;-8.642;2022-12-16T03:53:56;2.93;;;1.90;;
20000;SDS011;10161;41.188;-8.642;2022-12-16T03:56:23;4.77;;;2.10;;
20000;SDS011;10161;41.188;-8.642;2022-12-16T03:58:49;3.63;;;2.30;;
20000;SDS011;10161;41.188;-8.642;2022-12-16T04:01:16;2.80;;;2.00;;
20000;SDS011;10161;41.188;-8.642;2022-12-16T04:03:44;3.03;;;2.10;;
20000;SDS011;10161;41.188;-8.642;2022-12-16T04:06:11;2.47;;;2.00;;
20000;SDS011;10161;41.188;-8.642;2022-12-16T04:08:44;8.87;;;2.40;;
20000;SDS011;10161;41.188;-8.642;2022-12-16T04:11:11;4.23;;;2.07;;
20000;SDS011;10161;41.188;-8.642;2022-12-16T04:13:58;3.73;;;1.50;;
20000;SDS011;10161;41.188;-8.642;2022-12-16T04:16:43;3.40;;;2.07;;
20000;SDS011;10161;41.188;-8.642;2022-12-16T04:19:27;3.97;;;1.80;;
20000;SDS011;10161;41.188;-8.642;2022-12-16T04:22:13;2.83;;;1.70;;
20000;SDS011;10161;41.188;-8.642;2022-12-16T04:25:04;2.43;;;1.67;;
20000;SDS011;10161;41.188;-8.642;2022-12-16T04:27:33;3.20;;;1.47;;
20000;SDS011;10161;41.188;-8.642;2022-12-16T04:30:00;3.13;;;1.83;;
20000;SDS011;10161;41.188;-8.642;2022-12-16T04:32:46;2.10;;;1.33;;
20000;SDS011;10161;41.188;-8.642;2022-12-16T04:35:33;3.83;;;1.90;;
20000;SDS011;10161;41.188;-8.642;2022-12-16T04:38:17;3.00;;;1.47;;
20000;SDS011;10161;41.188;-8.642;2022-12-16T04:41:03;2.00;;;1.13;;
20000;SDS011;10161;41.188;-8.642;2022-12-16T04:43:47;3.43;;;1.60;;
20000;SDS011;10161;41.188;-8.642;2022-12-16T04:46:32;2.80;;;1.30;;
20000;SDS011;10161;41.188;-8.642;2022-12-16T04:49:17;2.60;;;1.50;;
20000;SDS011;10161;41.188;-8.642;2022-12-16T04:52:01;3.20;;;1.63;;
20000;SDS011;10161;41.188;-8.642;2022-12-16T04:54:45;4.20;;;1.40;;
20000;SDS011;10161;41.188;-8.642;2022-12-16T04:57:31;1.27;;;1.00;;
20000;SDS011;10161;41.188;-8.642;2022-12-16T05:00:15;1.87;;;1.20;;
20000;SDS011;10161;41.188;-8.642;2022-12-16T05:03:00;2.30;;;1.20;;
20000;SDS011;10161;41.188;-8.642;2022-12-16T05:05:44;1.90;;;1.10;;
20000;SDS011;10161;41.188;-8.642;2022-12-16T05:08:29;2.10;;;1.33;;
20000;SDS011;10161;41.188;-8.642;2022-12-16T05:11:13;2.70;;;1.03;;
20000;SDS011;10161;41.188;-8.642;2022-12-16T05:13:59;1.70;;;1.10;;
20000;SDS011;10161;41.188;-8.642;2022-12-16T05:16:43;3.30;;;1.93;;
20000;SDS011;10161;41.188;-8.642;2022-12-16T05:19:28;2.83;;;1.00;;
20000;SDS011;10161;41.188;-8.642;2022-12-16T05:22:12;1.33;;;1.23;;
20000;SDS011;10161;41.188;-8.642;2022-12-16T05:24:57;1.30;;;1.00;;
20000;SDS011;10161;41.188;-8.642;2022-12-16T05:27:41;1.20;;;1.03;;
20000;SDS011;10161;41.188;-8.642;2022-12-16T05:30:27;3.00;;;1.40;;
20000;SDS011;10161;41.188;-8.642;2022-12-16T05:33:12;2.13;;;1.00;;
20000;SDS011;10161;41.188;-8.642;2022-12-16T05:35:56;1.87;;;1.00;;
20000;SDS011;10161;41.188;-8.642;2022-12-16T05:38:46;2.53;;;1.07;;
20000;SDS011;10161;41.188;-8.642;2022-12-16T05:41:30;1.83;;;1.03;;
20000;SDS011;10161;41.188;-8.642;2022-12-16T05:44:15;1.47;;;0.90;;
20000;SDS011;10161;41.188;-8.642;2022-12-16T05:47:01;1.90;;;0.90;;
20000;SDS011;10161;41.188;-8.642;2022-12-16T05:49:46;1.97;;;0.90;;
20000;SDS011;10161;41.188;-8.642;2022-12-16T05:52:30;1.30;;;0.97;;
20000;SDS011;10161;41.188;-8.642;2022-12-16T05:55:20;1.63;;;1.30;;
20000;SDS011;10161;41.188;-8.642;2022-12-16T05:58:04;1.87;;;1.20;;
20000;SDS011;10161;41.188;-8.642;2022-12-16T06:00:48;3.97;;;1.93;;
20000;SDS011;10161;41.188;-8.642;2022-12-16T06:03:34;3.77;;;2.03;;
20000;SDS011;10161;41.188;-8.642;2022-12-16T06:06:18;2.40;;;1.93;;
20000;SDS011;10161;41.188;-8.642;2022-12-16T06:09:03;1.90;;;1.60;;
20000;SDS011;10161;41.188;-8.642;2022-12-16T06:11:47;2.87;;;1.90;;
20000;SDS011;10161;41.188;-8.642;2022-12-16T06:14:32;3.10;;;1.80;;
20000;SDS011;10161;41.188;-8.642;2022-12-16T06:17:16;2.07;;;1.23;;
20000;SDS011;10161;41.188;-8.642;2022-12-16T06:20:03;3.33;;;1.60;;
20000;SDS011;10161;41.188;-8.642;2022-12-16T06:22:49;2.10;;;1.30;;
20000;SDS011;10161;41.188;-8.642;2022-12-16T06:25:33;4.40;;;1.43;;
20000;SDS011;10161;41.188;-8.642;2022-12-16T06:28:18;3.13;;;1.60;;
20000;SDS011;10161;41.188;-8.642;2022-12-16T06:31:02;2.17;;;1.33;;
20000;SDS011;10161;41.188;-8.642;2022-12-16T06:33:47;2.70;;;1.40;;
20000;SDS011;10161;41.188;-8.642;2022-12-16T06:36:32;1.67;;;1.30;;
20000;SDS011;10161;41.188;-8.642;2022-12-16T06:39:16;1.43;;;1.33;;
20000;SDS011;10161;41.188;-8.642;2022-12-16T06:42:01;3.73;;;1.23;;
20000;SDS011;10161;41.188;-8.642;2022-12-16T06:44:45;2.33;;;1.20;;
20000;SDS011;10161;41.188;-8.642;2022-12-16T06:47:30;1.67;;;1.00;;
20000;SDS011;10161;41.188;-8.642;2022-12-16T06:50:14;2.23;;;1.40;;
20000;SDS011;10161;41.188;-8.642;2022-12-16T06:53:00;1.77;;;1.13;;
20000;SDS011;10161;41.188;-8.642;2022-12-16T06:55:53;1.70;;;1.50;;
20000;SDS011;10161;41.188;-8.642;2022-12-16T06:58:37;1.50;;;1.00;;
20000;SDS011;10161;41.188;-8.642;2022-12-16T07:01:21;1.20;;;1.10;;
20000;SDS011;10161;41.188;-8.642;2022-12-16T07:04:06;3.07;;;1.13;;
20000;SDS011;10161;41.188;-8.642;2022-12-16T07:06:50;2.20;;;1.10;;
20000;SDS011;10161;41.188;-8.642;2022-12-16T07:09:36;3.80;;;1.07;;
20000;SDS011;10161;41.188;-8.642;2022-12-16T07:12:19;1.43;;;1.10;;
20000;SDS011;10161;41.188;-8.642;2022-12-16T07:15:04;1.83;;;1.20;;
20000;SDS011;10161;41.188;-8.642;2022-12-16T07:17:49;1.20;;;1.00;;
20000;SDS011;10161;41.188;-8.642;2022-12-16T07:20:33;1.10;;;1.00;;
20000;SDS011;10161;41.188;-8.642;2022-12-16T07:23:17;1.53;;;1.30;;
20000;SDS011;10161;41.188;-8.642;2022-12-16T07:26:04;2.57;;;1.40;;
20000;SDS011;10161;41.188;-8.642;2022-12-16T07:28:48;1.10;;;1.00;;
20000;SDS011;10161;41.188;-8.642;2022-12-16T07:31:33;1.47;;;1.03;;
20000;SDS011;10161;41.188;-8.642;2022-12-16T07:34:17;1.60;;;1.20;;
20000;SDS011;10161;41.188;-8.642;2022-12-16T07:37:13;2.97;;;1.30;;
20000;SDS011;10161;41.188;-8.642;2022-12-16T07:39:57;1.40;;;1.17;;
20000;SDS011;10161;41.188;-8.642;2022-12-16T07:42:43;1.07;;;0.93;;
20000;SDS011;10161;41.188;-8.642;2022-12-16T07:45:29;1.57;;;1.23;;
20000;SDS011;10161;41.188;-8.642;2022-12-16T07:48:13;1.30;;;1.20;;
20000;SDS011;10161;41.188;-8.642;2022-12-16T07:50:57;2.70;;;1.50;;
20000;SDS011;10161;41.188;-8.642;2022-12-16T07:53:42;1.90;;;1.30;;
20000;SDS011;10161;41.188;-8.642;2022-12-16T07:56:35;2.33;;;2.00;;
20000;SDS011;10161;41.188;-8.642;2022-12-16T07:59:20;2.07;;;1.50;;
20000;SDS011;10161;41.188;-8.642;2022-12-16T08:02:06;5.33;;;2.00;;
20000;SDS011;10161;41.188;-8.642;2022-12-16T08:04:51;1.63;;;1.43;;
20000;SDS011;10161;41.188;-8.642;2022-12-16T08:07:38;3.70;;;1.43;;
20000;SDS011;10161;41.188;-8.642;2022-12-16T08:10:23;1.80;;;1.43;;
20000;SDS011;10161;41.188;-8.642;2022-12-16T08:13:07;1.70;;;1.40;;
20000;SDS011;10161;41.188;-8.642;2022-12-16T08:15:53;3.13;;;1.37;;
20000;SDS011;10161;41.188;-8.642;2022-12-16T08:18:37;2.00;;;1.47;;
20000;SDS011;10161;41.188;-8.642;2022-12-16T08:21:21;1.30;;;1.20;;
20000;SDS011;10161;41.188;-8.642;2022-12-16T08:24:06;1.37;;;1.20;;
20000;SDS011;10161;41.188;-8.642;2022-12-16T08:26:50;2.13;;;1.63;;
20000;SDS011;10161;41.188;-8.642;2022-12-16T08:29:35;1.57;;;1.30;;
20000;SDS011;10161;41.188;-8.642;2022-12-16T08:32:20;2.27;;;2.07;;
20000;SDS011;10161;41.188;-8.642;2022-12-16T08:35:05;3.80;;;1.60;;
20000;SDS011;10161;41.188;-8.642;2022-12-16T08:37:53;2.10;;;1.30;;
20000;SDS011;10161;41.188;-8.642;2022-12-16T08:40:37;3.03;;;1.77;;
20000;SDS011;10161;41.188;-8.642;2022-12-16T08:43:21;2.40;;;1.80;;
20000;SDS011;10161;41.188;-8.642;2022-12-16T08:46:06;5.17;;;1.30;;
20000;SDS011;10161;41.188;-8.642;2022-12-16T08:48:51;1.77;;;1.67;;
20000;SDS011;10161;41.188;-8.642;2022-12-16T08:51:35;3.23;;;2.17;;
20000;SDS011;10161;41.188;-8.642;2022-12-16T08:54:20;2.90;;;1.90;;
20000;SDS011;10161;41.188;-8.642;2022-12-16T08:57:04;2.70;;;1.43;;
20000;SDS011;10161;41.188;-8.642;2022-12-16T08:59:49;3.53;;;1.73;;
20000;SDS011;10161;41.188;-8.642;2022-12-16T09:02:33;2.07;;;1.70;;
20000;SDS011;10161;41.188;-8.642;2022-12-16T09:05:19;4.30;;;1.43;;
20000;SDS011;10161;41.188;-8.642;2022-12-16T09:08:03;1.67;;;1.57;;
20000;SDS011;10161;41.188;-8.642;2022-12-16T09:10:47;1.73;;;1.50;;
20000;SDS011;10161;41.188;-8.642;2022-12-16T09:13:40;2.70;;;1.53;;
20000;SDS011;10161;41.188;-8.642;2022-12-16T09:16:24;2.27;;;1.30;;
20000;SDS011;10161;41.188;-8.642;2022-12-16T09:19:09;3.37;;;1.53;;
20000;SDS011;10161;41.188;-8.642;2022-12-16T09:21:54;4.10;;;1.67;;
20000;SDS011;10161;41.188;-8.642;2022-12-16T09:24:39;2.40;;;1.63;;
20000;SDS011;10161;41.188;-8.642;2022-12-16T09:27:23;1.93;;;1.50;;
20000;SDS011;10161;41.188;-8.642;2022-12-16T09:30:08;2.43;;;1.87;;
20000;SDS011;10161;41.188;-8.642;2022-12-16T09:32:53;2.77;;;2.20;;
20000;SDS011;10161;41.188;-8.642;2022-12-16T09:35:37;2.40;;;1.80;;
20000;SDS011;10161;41.188;-8.642;2022-12-16T09:38:23;2.40;;;1.83;;
20000;SDS011;10161;41.188;-8.642;2022-12-16T09:41:14;2.43;;;1.87;;
20000;SDS011;10161;41.188;-8.642;2022-12-16T09:44:06;3.20;;;2.27;;
20000;SDS011;10161;41.188;-8.642;2022-12-16T09:46:56;1.83;;;1.60;;
20000;SDS011;10161;41.188;-8.642;2022-12-16T09:49:47;3.90;;;1.70;;
20000;SDS011;10161;41.188;-8.642;2022-12-16T09:52:32;1.77;;;1.33;;
20000;SDS011;10161;41.188;-8.642;2022-12-16T09:55:24;1.70;;;1.20;;
20000;SDS011;10161;41.188;-8.642;2022-12-16T09:58:11;1.50;;;1.40;;
20000;SDS011;10161;41.188;-8.642;2022-12-16T10:00:58;1.83;;;1.53;;
20000;SDS011;10161;41.188;-8.642;2022-12-16T10:03:43;4.37;;;3.33;;
20000;SDS011;10161;41.188;-8.642;2022-12-16T10:06:35;2.90;;;2.40;;
20000;SDS011;10161;41.188;-8.642;2022-12-16T10:09:25;3.67;;;3.13;;
20000;SDS011;10161;41.188;-8.642;2022-12-16T10:12:16;4.70;;;3.37;;
20000;SDS011;10161;41.188;-8.642;2022-12-16T10:15:09;4.30;;;3.90;;
20000;SDS011;10161;41.188;-8.642;2022-12-16T10:17:59;3.73;;;3.33;;
20000;SDS011;10161;41.188;-8.642;2022-12-16T10:20:47;3.13;;;2.83;;
20000;SDS011;10161;41.188;-8.642;2022-12-16T10:23:35;3.17;;;2.87;;
20000;SDS011;10161;41.188;-8.642;2022-12-16T10:26:24;3.53;;;3.23;;
20000;SDS011;10161;41.188;-8.642;2022-12-16T10:29:15;10.80;;;3.63;;
20000;SDS011;10161;41.188;-8.642;2022-12-16T10:32:03;4.10;;;3.40;;
20000;SDS011;10161;41.188;-8.642;2022-12-16T10:34:53;4.70;;;3.20;;
20000;SDS011;10161;41.188;-8.642;2022-12-16T10:37:39;6.53;;;3.80;;
20000;SDS011;10161;41.188;-8.642;2022-12-16T10:40:23;4.70;;;4.20;;
20000;SDS011;10161;41.188;-8.642;2022-12-16T10:43:10;4.60;;;4.10;;
20000;SDS011;10161;41.188;-8.642;2022-12-16T10:45:59;4.77;;;4.37;;
20000;SDS011;10161;41.188;-8.642;2022-12-16T10:48:49;6.90;;;4.80;;
20000;SDS011;10161;41.188;-8.642;2022-12-16T10:51:33;5.23;;;4.37;;
20000;SDS011;10161;41.188;-8.642;2022-12-16T10:54:23;8.83;;;4.07;;
20000;SDS011;10161;41.188;-8.642;2022-12-16T10:57:14;4.90;;;4.50;;
20000;SDS011;10161;41.188;-8.642;2022-12-16T11:00:07;5.57;;;3.97;;
20000;SDS011;10161;41.188;-8.642;2022-12-16T11:02:54;3.93;;;3.50;;
20000;SDS011;10161;41.188;-8.642;2022-12-16T11:05:38;3.77;;;3.47;;
20000;SDS011;10161;41.188;-8.642;2022-12-16T11:08:24;5.10;;;3.50;;
20000;SDS011;10161;41.188;-8.642;2022-12-16T11:11:20;3.57;;;3.07;;
20000;SDS011;10161;41.188;-8.642;2022-12-16T11:14:13;4.10;;;2.90;;
20000;SDS011;10161;41.188;-8.642;2022-12-16T11:20:10;5.50;;;2.43;;
20000;SDS011;10161;41.188;-8.642;2022-12-16T11:23:12;3.40;;;3.10;;
20000;SDS011;10161;41.188;-8.642;2022-12-16T11:26:06;4.60;;;3.20;;
20000;SDS011;10161;41.188;-8.642;2022-12-16T11:32:02;3.30;;;2.80;;
20000;SDS011;10161;41.188;-8.642;2022-12-16T11:34:54;3.00;;;2.60;;
20000;SDS011;10161;41.188;-8.642;2022-12-16T11:37:41;4.80;;;3.30;;
20000;SDS011;10161;41.188;-8.642;2022-12-16T11:40:26;3.80;;;3.00;;
20000;SDS011;10161;41.188;-8.642;2022-12-16T11:43:12;3.93;;;3.00;;
20000;SDS011;10161;41.188;-8.642;2022-12-16T11:45:58;4.40;;;2.40;;
20000;SDS011;10161;41.188;-8.642;2022-12-16T11:48:53;3.30;;;2.70;;
20000;SDS011;10161;41.188;-8.642;2022-12-16T11:51:40;1.70;;;1.60;;
20000;SDS011;10161;41.188;-8.642;2022-12-16T11:54:26;2.13;;;1.93;;
20000;SDS011;10161;41.188;-8.642;2022-12-16T11:57:15;1.67;;;1.57;;
20000;SDS011;10161;41.188;-8.642;2022-12-16T12:00:02;1.70;;;1.30;;
20000;SDS011;10161;41.188;-8.642;2022-12-16T12:02:47;2.17;;;1.30;;
20000;SDS011;10161;41.188;-8.642;2022-12-16T12:05:36;1.50;;;1.40;;
20000;SDS011;10161;41.188;-8.642;2022-12-16T12:08:23;1.60;;;1.50;;
20000;SDS011;10161;41.188;-8.642;2022-12-16T12:11:25;1.53;;;1.30;;
20000;SDS011;10161;41.188;-8.642;2022-12-16T12:14:12;2.07;;;1.53;;
20000;SDS011;10161;41.188;-8.642;2022-12-16T12:17:04;1.67;;;1.57;;
20000;SDS011;10161;41.188;-8.642;2022-12-16T12:19:55;1.60;;;1.50;;
20000;SDS011;10161;41.188;-8.642;2022-12-16T12:22:46;1.90;;;1.60;;
20000;SDS011;10161;41.188;-8.642;2022-12-16T12:25:33;1.93;;;1.60;;
20000;SDS011;10161;41.188;-8.642;2022-12-16T12:28:25;2.67;;;1.47;;
20000;SDS011;10161;41.188;-8.642;2022-12-16T12:31:19;2.37;;;1.80;;
20000;SDS011;10161;41.188;-8.642;2022-12-16T12:34:10;2.90;;;1.70;;
20000;SDS011;10161;41.188;-8.642;2022-12-16T12:36:58;1.87;;;1.73;;
20000;SDS011;10161;41.188;-8.642;2022-12-16T12:39:50;2.13;;;2.00;;
20000;SDS011;10161;41.188;-8.642;2022-12-16T12:42:52;2.33;;;1.93;;
20000;SDS011;10161;41.188;-8.642;2022-12-16T12:45:44;2.13;;;1.50;;
20000;SDS011;10161;41.188;-8.642;2022-12-16T12:48:34;2.33;;;1.80;;
20000;SDS011;10161;41.188;-8.642;2022-12-16T12:51:24;2.03;;;1.50;;
20000;SDS011;10161;41.188;-8.642;2022-12-16T12:54:14;1.50;;;1.40;;
20000;SDS011;10161;41.188;-8.642;2022-12-16T12:57:04;2.30;;;2.10;;
20000;SDS011;10161;41.188;-8.642;2022-12-16T12:59:50;1.40;;;1.30;;
20000;SDS011;10161;41.188;-8.642;2022-12-16T13:02:39;2.23;;;1.60;;
20000;SDS011;10161;41.188;-8.642;2022-12-16T13:05:27;2.50;;;1.80;;
20000;SDS011;10161;41.188;-8.642;2022-12-16T13:08:31;1.60;;;1.50;;
20000;SDS011;10161;41.188;-8.642;2022-12-16T13:11:21;2.23;;;1.63;;
20000;SDS011;10161;41.188;-8.642;2022-12-16T13:17:26;1.60;;;1.50;;
20000;SDS011;10161;41.188;-8.642;2022-12-16T13:26:23;1.80;;;1.70;;
20000;SDS011;10161;41.188;-8.642;2022-12-16T13:29:13;2.03;;;1.50;;
20000;SDS011;10161;41.188;-8.642;2022-12-16T13:32:01;1.60;;;1.30;;
20000;SDS011;10161;41.188;-8.642;2022-12-16T13:34:57;4.33;;;1.60;;
20000;SDS011;10161;41.188;-8.642;2022-12-16T13:37:48;1.80;;;1.47;;
20000;SDS011;10161;41.188;-8.642;2022-12-16T13:40:46;1.97;;;1.50;;
20000;SDS011;10161;41.188;-8.642;2022-12-16T13:43:43;1.40;;;1.20;;
20000;SDS011;10161;41.188;-8.642;2022-12-16T13:46:38;1.60;;;1.50;;
20000;SDS011;10161;41.188;-8.642;2022-12-16T13:49:40;1.50;;;1.40;;
20000;SDS011;10161;41.188;-8.642;2022-12-16T13:52:31;1.40;;;1.30;;
20000;SDS011;10161;41.188;-8.642;2022-12-16T13:55:37;1.20;;;1.10;;
20000;SDS011;10161;41.188;-8.642;2022-12-16T13:58:28;3.47;;;3.17;;
20000;SDS011;10161;41.188;-8.642;2022-12-16T14:01:32;1.70;;;1.60;;
20000;SDS011;10161;41.188;-8.642;2022-12-16T14:04:32;1.70;;;1.43;;
20000;SDS011;10161;41.188;-8.642;2022-12-16T14:07:17;2.23;;;1.50;;
20000;SDS011;10161;41.188;-8.642;2022-12-16T14:10:04;1.50;;;1.40;;
20000;SDS011;10161;41.188;-8.642;2022-12-16T14:12:55;1.50;;;1.30;;
20000;SDS011;10161;41.188;-8.642;2022-12-16T14:15:49;2.33;;;1.33;;
20000;SDS011;10161;41.188;-8.642;2022-12-16T14:18:40;3.30;;;1.70;;
20000;SDS011;10161;41.188;-8.642;2022-12-16T14:21:37;3.13;;;1.90;;
20000;SDS011;10161;41.188;-8.642;2022-12-16T14:24:25;2.07;;;1.60;;
20000;SDS011;10161;41.188;-8.642;2022-12-16T14:27:12;2.90;;;1.70;;
20000;SDS011;10161;41.188;-8.642;2022-12-16T14:29:59;2.80;;;2.00;;
20000;SDS011;10161;41.188;-8.642;2022-12-16T14:32:44;3.73;;;2.23;;
20000;SDS011;10161;41.188;-8.642;2022-12-16T14:35:28;3.07;;;2.00;;
20000;SDS011;10161;41.188;-8.642;2022-12-16T14:38:20;2.10;;;1.90;;
20000;SDS011;10161;41.188;-8.642;2022-12-16T14:41:09;1.90;;;1.60;;
20000;SDS011;10161;41.188;-8.642;2022-12-16T14:43:54;1.70;;;1.23;;
20000;SDS011;10161;41.188;-8.642;2022-12-16T14:46:40;2.77;;;2.00;;
20000;SDS011;10161;41.188;-8.642;2022-12-16T14:49:36;1.83;;;1.70;;
20000;SDS011;10161;41.188;-8.642;2022-12-16T14:52:31;3.27;;;2.33;;
20000;SDS011;10161;41.188;-8.642;2022-12-16T14:55:16;2.97;;;2.67;;
20000;SDS011;10161;41.188;-8.642;2022-12-16T14:58:05;4.20;;;2.50;;
20000;SDS011;10161;41.188;-8.642;2022-12-16T15:00:52;3.53;;;2.47;;
20000;SDS011;10161;41.188;-8.642;2022-12-16T15:03:39;4.43;;;2.07;;
20000;SDS011;10161;41.188;-8.642;2022-12-16T15:06:25;3.27;;;2.00;;
20000;SDS011;10161;41.188;-8.642;2022-12-16T15:09:16;2.10;;;1.90;;
20000;SDS011;10161;41.188;-8.642;2022-12-16T15:12:04;2.10;;;1.90;;
20000;SDS011;10161;41.188;-8.642;2022-12-16T15:14:50;2.70;;;1.63;;
20000;SDS011;10161;41.188;-8.642;2022-12-16T15:17:39;2.10;;;1.73;;
20000;SDS011;10161;41.188;-8.642;2022-12-16T15:20:28;2.17;;;1.70;;
20000;SDS011;10161;41.188;-8.642;2022-12-16T15:23:14;1.90;;;1.70;;
20000;SDS011;10161;41.188;-8.642;2022-12-16T15:26:03;1.83;;;1.60;;
20000;SDS011;10161;41.188;-8.642;2022-12-16T15:28:49;2.60;;;1.97;;
20000;SDS011;10161;41.188;-8.642;2022-12-16T15:31:34;1.70;;;1.60;;
20000;SDS011;10161;41.188;-8.642;2022-12-16T15:34:23;3.87;;;2.20;;
20000;SDS011;10161;41.188;-8.642;2022-12-16T15:37:23;3.97;;;2.50;;
20000;SDS011;10161;41.188;-8.642;2022-12-16T15:40:18;2.87;;;1.70;;
20000;SDS011;10161;41.188;-8.642;2022-12-16T15:43:05;5.30;;;2.20;;
20000;SDS011;10161;41.188;-8.642;2022-12-16T15:46:04;1.63;;;1.53;;
20000;SDS011;10161;41.188;-8.642;2022-12-16T15:48:48;1.67;;;1.50;;
20000;SDS011;10161;41.188;-8.642;2022-12-16T15:51:40;2.37;;;1.50;;
20000;SDS011;10161;41.188;-8.642;2022-12-16T15:54:27;1.83;;;1.50;;
20000;SDS011;10161;41.188;-8.642;2022-12-16T15:57:25;2.20;;;1.70;;
20000;SDS011;10161;41.188;-8.642;2022-12-16T16:00:18;2.07;;;1.37;;
20000;SDS011;10161;41.188;-8.642;2022-12-16T16:03:04;3.27;;;1.60;;
20000;SDS011;10161;41.188;-8.642;2022-12-16T16:05:59;1.93;;;1.50;;
20000;SDS011;10161;41.188;-8.642;2022-12-16T16:08:48;2.90;;;1.60;;
20000;SDS011;10161;41.188;-8.642;2022-12-16T16:11:34;1.80;;;1.50;;
20000;SDS011;10161;41.188;-8.642;2022-12-16T16:14:18;1.93;;;1.33;;
20000;SDS011;10161;41.188;-8.642;2022-12-16T16:17:06;2.57;;;1.90;;
20000;SDS011;10161;41.188;-8.642;2022-12-16T16:19:56;2.37;;;1.40;;
20000;SDS011;10161;41.188;-8.642;2022-12-16T16:22:41;1.97;;;1.63;;
20000;SDS011;10161;41.188;-8.642;2022-12-16T16:25:25;1.73;;;1.53;;
20000;SDS011;10161;41.188;-8.642;2022-12-16T16:28:11;1.83;;;1.73;;
20000;SDS011;10161;41.188;-8.642;2022-12-16T16:30:55;1.60;;;1.50;;
20000;SDS011;10161;41.188;-8.642;2022-12-16T16:33:39;2.90;;;1.93;;
20000;SDS011;10161;41.188;-8.642;2022-12-16T16:36:24;2.43;;;1.80;;